Details From LJLJ - Ljubljana
To FMNM - Philibert Tsiranana
Flight Number -
Tags Decoded
Created
Modified
Stats Distance 4,385 nm / 8,120 km
Max Altitude 0 ft / 0 m
Waypoints 12
Social Downloads 1
Likes 0
Share VATSIM

Download

Looking for another format? Having issues loading an existing format? Contact us
Advertisement - Login to hide

Notes

Decoded

Route

LJLJ NANIS LJPZ LDPL CRE LOS ALANU LDZD LDRI LDZA KAM MG

ID Type Via Altitude Latitude Longitude Leg Dist Tot Dist Heading (true) Name
O LJLJ APT - 0 ft / 0 m 46.23249˚ 14.44039˚ - 0 nm - -
NANIS FIX - 0 ft / 0 m 45.79099˚ 14.03297˚ 31 nm 31 nm 213° / 213° -
LJPZ APT - 0 ft / 0 m 45.47718˚ 13.61198˚ 25 nm 57 nm 223° / 223° -
LDPL APT - 0 ft / 0 m 44.89313˚ 13.90359˚ 37 nm 94 nm 161° / 161° -
CRE NDB - 0 ft / 0 m 44.90288˚ 14.41655˚ 21 nm 116 nm 88° / 89° CRES NDB
LOS NDB - 0 ft / 0 m 44.52710˚ 14.47285˚ 22 nm 139 nm 174° / 174° LOSINJ NDB
ALANU FIX - 0 ft / 0 m 44.52472˚ 15.28056˚ 34 nm 173 nm 90° / 91° -
LDZD APT - 0 ft / 0 m 44.07939˚ 15.34116˚ 26 nm 200 nm 174° / 174° -
LDRI APT - 0 ft / 0 m 45.22566˚ 14.56143˚ 76 nm 276 nm 334° / 334° -
LDZA APT - 0 ft / 0 m 45.73188˚ 16.05197˚ 69 nm 346 nm 64° / 65° -
KAM VOR - 0 ft / 0 m 37.06643˚ 22.02391˚ 585 nm 932 nm 151° / 155° KALAMATA VOR-DME
O MG VOR - 0 ft / 0 m -15.65750˚ 46.34067˚ 3452 nm 4384 nm 152° / 157° PHILIBERT TSIRANANA VOR-DME

Altitude Profile

Advertisement - Login to hide

Weather


0- 5 10 15 20 25 30 35+ Temperature / ° C

Clouds and Precipitation
Forecast for 2017-12-17 06:00 UTC. Updated 2 hours ago

Ground ~20,000 ft ~40,000 ft Winds

LJLJ

Details ICAO LJLJ (LJU)
Name LJUBLJANA
Region Slovenia
Timezone Europe/Ljubljana (UTC+1.0)
Stats Elevation 1,273 ft / 388 m (AMSL)
Location 46.223685° 14.457608°
Runways 1
Magnetic Variation 3.662° E

METAR

LJLJ 170430Z VRB01KT 0300 R30/0450N FZFG VV001 M04/M04 Q1016 R30/29//95 NOSIG

Decode

TAF

TAF AMD LJLJ 170416Z 1704/1803 VRB01KT 0300 FZFG VV001 BECMG 1709/1710 1500 BR OVC003 BECMG 1710/1711 3500 BKN005 BECMG 1711/1712 9999 NSW FEW040 SCT100 BECMG 1717/1720 3500 BR BECMG 1720/1723 0300 FZFG VV001

Decode

Departure Runways

ID Width Length Bearing (true) Bearing (mag) Surface Threshold Offset Overrun Length
13 148 ft / 45 m 10,811 ft / 3,295 m 126.47° 122.81° Asphalt 0 ft / 0 m 0 ft / 0 m
31 148 ft / 45 m 10,811 ft / 3,295 m 306.49° 302.83° Asphalt 0 ft / 0 m 0 ft / 0 m

FMNM

Details ICAO FMNM (MJN)
Name PHILIBERT TSIRANANA
Region Comoros, Mayotte, Réunion and Madagascar
Timezone Indian/Antananarivo (UTC+3.0)
Stats Elevation 87 ft / 27 m (AMSL)
Location -15.667144° 46.351829°
Runways 1
Magnetic Variation 11.235° W

METAR

FMNM 170400Z 12003KT 9999 FEW020CB 25/21 Q1013 NOSIG

Decode

TAF

Not found

Destination Runways

ID Width Length Bearing (true) Bearing (mag) Surface Threshold Offset Overrun Length
14 148 ft / 45 m 7,235 ft / 2,205 m 132.37° 143.61° Asphalt 0 ft / 0 m 98 ft / 30 m
32 148 ft / 45 m 7,235 ft / 2,205 m 312.37° 323.61° Asphalt 0 ft / 0 m 98 ft / 30 m